This is the latest recevied weather packets stored in our database for station/object WX4SGA. If no packets are shown the sender has not sent any weather packets the latest 1 day(s).
| Time | Temp. | Humidity | Pressure | Rain* | Wind** | Luminosity | Snow |
|---|---|---|---|---|---|---|---|
| 1777993741 | 25.56° C | 63% | 1018 hPa | 0 mm | 0.89 m/s, 348° | 297 W/m² | - |
| 1777993439 | 25.56° C | 63% | 1018 hPa | 0 mm | 0.89 m/s, 156° | 656 W/m² | - |
| 1777993132 | 25.56° C | 63% | 1018 hPa | 0 mm | 1.34 m/s, 307° | 556 W/m² | - |
| 1777992830 | 26.11° C | 62% | 1018 hPa | 0 mm | 0 m/s | 501 W/m² | - |
| 1777992528 | 26.11° C | 60% | 1018 hPa | 0 mm | 0.45 m/s, 68° | 518 W/m² | - |
| 1777992226 | 25.56° C | 61% | 1018 hPa | 0 mm | 0.45 m/s, 78° | 206 W/m² | - |
| 1777991923 | 25° C | 64% | 1017.6 hPa | 0 mm | 0.89 m/s, 59° | 587 W/m² | - |
| 1777991620 | 25° C | 63% | 1018 hPa | 0 mm | 0.89 m/s, 95° | 528 W/m² | - |
| 1777991317 | 24.44° C | 64% | 1017.6 hPa | 0 mm | 0 m/s | 536 W/m² | - |
| 1777991015 | 24.44° C | 65% | 1017.6 hPa | 0 mm | 0.89 m/s, 94° | 524 W/m² | - |
| 1777990712 | 24.44° C | 65% | 1017.6 hPa | 0 mm | 0.45 m/s, 98° | 474 W/m² | - |
| 1777990409 | 24.44° C | 65% | 1017.6 hPa | 0 mm | 0 m/s | 484 W/m² | - |
| 1777990106 | 24.44° C | 67% | 1017.6 hPa | 0 mm | 0.45 m/s, 77° | 501 W/m² | - |
| 1777989802 | 23.33° C | 68% | 1017.6 hPa | 0 mm | 0 m/s | 193 W/m² | - |
| 1777989500 | 22.78° C | 68% | 1017.6 hPa | 0 mm | 1.34 m/s, 78° | 468 W/m² | - |
| 1777989195 | 22.78° C | 68% | 1017.6 hPa | 0 mm | 0.45 m/s, 91° | 450 W/m² | - |
| 1777988892 | 23.33° C | 68% | 1017.6 hPa | 0 mm | 1.34 m/s, 216° | 390 W/m² | - |
| 1777988589 | 23.33° C | 66% | 1017.6 hPa | 0 mm | 1.34 m/s, 132° | 219 W/m² | - |
| 1777988285 | 23.33° C | 67% | 1017.6 hPa | 0 mm | 0.45 m/s, 72° | 234 W/m² | - |
| 1777987982 | 22.78° C | 68% | 1017.6 hPa | 0 mm | 0 m/s | 353 W/m² | - |
| 1777987678 | 22.22° C | 69% | 1017.6 hPa | 0 mm | 0 m/s | 346 W/m² | - |
| 1777987375 | 22.22° C | 70% | 1017.3 hPa | 0 mm | 0.89 m/s, 154° | 147 W/m² | - |
| 1777987073 | 21.67° C | 69% | 1017.3 hPa | 0 mm | 0.89 m/s, 109° | 307 W/m² | - |
| 1777986770 | 21.67° C | 71% | 1017.6 hPa | 0 mm | 0 m/s | 292 W/m² | - |
| 1777986467 | 21.67° C | 72% | 1017.6 hPa | 0 mm | 0.45 m/s, 64° | 277 W/m² | - |
* Rain latest hour (hover to see other rain measurements)
** Current wind speed in m/s (hover to see current wind gust speed)